Frankfort, MI (49635)

2:36 PM EST on December 18, 2014 (GMT -0500)
Crystal Lake Pinecrest | Change Station
CLOSE
Current Station
Personal Weather Station
Location: Beulah, MI
Elevation: 607 ft
Nearby Weather Stations

Elev 607 ft 44.66 °N, 86.14 °W | Updated 7 minutes ago

Scattered Clouds
Scattered Clouds
33.1 °F
Feels Like 29 °F
N
4.0
Wind Variable Wind from WNW
Gusts 9.0 mph

Today
High -- | Low -- °F
--% Chance of Precip.
Yesterday
High -- | Low -- °F
Precip. -- in
8:16 AM 5:06 PM
Waning Crescent, 12% visible
Pressure 30.20 in
Visibility 10.0 miles
Clouds Scattered Clouds 2300 ft
Windchill 29 °F
Dew Point 25 °F
Humidity 71%
Rainfall 0.05 in
Snow Depth Not available.
UV 1 out of 12
Pollen .10 out of 12
Air Quality Not available.
Flu Activity Not available.
METAR KFKS 181912Z AUTO 35006KT 10SM SCT023 M01/M05 A3020 RMK AO2 T10111054

More Conditions Fewer Conditions

Pressure 30.20 in
Visibility 10.0 miles
Clouds Scattered Clouds 2300 ft
Windchill 29 °F
Dew Point 25 °F
Humidity 71%
Rainfall 0.05 in
Snow Depth Not available.
UV 1 out of 12
Pollen .10 out of 12
Air Quality Not available.
Flu Activity Not available.
METAR KFKS 181912Z AUTO 35006KT 10SM SCT023 M01/M05 A3020 RMK AO2 T10111054

More Conditions Fewer Conditions

Nowcast | as of 2:00 PM EST on December 18, 2014

At 3 PM...mostly cloudy. Temperature 31. North winds 6 mph. At 5 PM...partly sunny. Temperature 31. North winds 6 mph. At 7 PM...partly cloudy. Temperature 30. North winds 6 mph. At 9 PM...mostly clear. Temperature 28. Northeast winds 5 mph.

×

10-Day Weather Forecast

Almanac

Astronomy

Dec. 18, 2014 Rise Set
Actual Time
Civil Twilight
Nautical Twilight
Astronomical Twilight
Moon
Length of Visible Light
Length of Day
Tomorrow will be .
, % of the Moon is Illuminated

Today's Extremes

State Highs State Lows

Community

WunderPhotos

Upload Photos

1,778,985 photos uploaded!

WunderBlogs® & News

Nearby

Air Quality

  Air Quality AQ Index Pollutant
Not available.

Snow Depth

Station Depth Elevation

Earthquake Activity

City Distance Mag. Time & Date
Minimum magnitude displayed is 2.5.

Coastal Water Temperatures

Place Temperature

Nearby Weather Stations